Time;durP1;ratioP1;P1;durP2;ratioP2;P2;SDS_P1;SDS_P2;PMS_P1;PMS_P2;Temp;Humidity;BMP_temperature;BMP_pressure;BME280_temperature;BME280_humidity;BME280_pressure;Samples;Min_cycle;Max_cycle;Signal;HPM_P1;HPM_P2
2021/10/08 00:01:53;;;;;;;24.90;18.03;;;;;;;10.20;75.13;102463.39;1677282;85;21844;-74
2021/10/08 00:04:19;;;;;;;25.43;18.70;;;;;;;10.13;75.20;102464.11;1671386;85;21137;-74
2021/10/08 00:06:45;;;;;;;33.73;19.05;;;;;;;10.08;75.21;102465.33;1656560;85;21077;-74
2021/10/08 00:09:11;;;;;;;31.50;19.25;;;;;;;10.02;75.12;102462.64;1659625;85;21061;-74
2021/10/08 00:11:37;;;;;;;27.13;17.80;;;;;;;9.94;75.20;102463.81;1652858;86;21005;-74
2021/10/08 00:14:04;;;;;;;25.68;19.48;;;;;;;9.89;75.23;102463.29;1633292;86;21072;-74
2021/10/08 00:16:30;;;;;;;33.53;19.57;;;;;;;9.84;75.31;102459.38;1652745;86;21665;-74
2021/10/08 00:18:56;;;;;;;31.13;18.80;;;;;;;9.80;75.23;102458.00;1653140;86;21450;-74
2021/10/08 00:21:22;;;;;;;30.87;18.93;;;;;;;9.75;75.32;102460.51;1644167;86;21351;-74
2021/10/08 00:23:50;;;;;;;32.45;18.55;;;;;;;9.70;75.26;102464.73;1625920;86;20945;-74
2021/10/08 00:26:18;;;;;;;28.23;19.57;;;;;;;9.65;75.30;102457.31;1640824;86;22207;-74
2021/10/08 00:28:45;;;;;;;25.68;18.87;;;;;;;9.61;75.33;102464.14;1630663;86;20937;-74
2021/10/08 00:31:11;;;;;;;31.70;18.43;;;;;;;9.57;75.31;102461.48;1628294;86;20893;-74
2021/10/08 00:33:36;;;;;;;27.80;19.23;;;;;;;9.53;75.33;102462.27;1643333;86;20913;-74
2021/10/08 00:36:05;;;;;;;29.42;18.52;;;;;;;9.49;75.37;102463.05;1654457;86;20888;-74
2021/10/08 00:38:31;;;;;;;26.07;19.23;;;;;;;9.46;75.38;102465.58;1645178;86;20949;-73
2021/10/08 00:40:57;;;;;;;27.60;19.83;;;;;;;9.43;75.40;102462.94;1636176;86;20989;-73
2021/10/08 00:43:23;;;;;;;33.57;21.07;;;;;;;9.39;75.41;102472.34;1637412;86;20961;-73
2021/10/08 00:45:50;;;;;;;34.60;20.17;;;;;;;9.31;75.51;102461.45;1650230;86;21489;-73
2021/10/08 00:48:17;;;;;;;28.30;18.92;;;;;;;9.32;75.37;102479.55;1653343;86;20928;-73
2021/10/08 00:50:48;;;;;;;31.33;20.90;;;;;;;9.26;75.34;102480.72;1627635;87;20987;-73
2021/10/08 00:53:15;;;;;;;26.97;19.65;;;;;;;9.19;75.36;102476.28;1627943;87;20980;-73
2021/10/08 00:55:45;;;;;;;31.82;19.60;;;;;;;9.14;75.40;102478.77;1637899;86;20890;-74
2021/10/08 00:58:14;;;;;;;30.60;20.25;;;;;;;9.12;75.46;102479.58;1650531;86;20913;-74
2021/10/08 01:00:44;;;;;;;29.23;20.20;;;;;;;9.08;75.47;102484.23;1654642;86;20921;-74
2021/10/08 01:03:11;;;;;;;29.05;19.60;;;;;;;9.05;75.43;102489.33;1654302;86;20962;-73
2021/10/08 01:05:38;;;;;;;33.18;19.10;;;;;;;8.95;75.33;102486.98;1648905;86;20965;-73
2021/10/08 01:08:08;;;;;;;27.77;19.37;;;;;;;8.84;75.33;102482.02;1654593;86;20910;-73
2021/10/08 01:10:37;;;;;;;28.42;19.95;;;;;;;8.79;75.49;102487.52;1652176;85;20966;-73
2021/10/08 01:13:06;;;;;;;34.63;19.67;;;;;;;8.76;75.55;102484.88;1659551;85;20969;-73
2021/10/08 01:15:32;;;;;;;28.52;18.75;;;;;;;8.73;75.49;102479.23;1657636;85;20922;-73
2021/10/08 01:17:59;;;;;;;26.57;19.75;;;;;;;8.68;75.51;102482.55;1679678;85;20922;-73
2021/10/08 01:20:26;;;;;;;;;;;;;;;8.63;75.50;102485.90;1681930;85;20924;-73
2021/10/08 01:22:57;;;;;;;25.75;17.02;;;;;;;8.54;75.55;102483.53;1666680;85;28103;-73
2021/10/08 01:25:22;;;;;;;30.60;20.25;;;;;;;8.49;75.55;102491.16;1636069;86;37546;-73
2021/10/08 01:27:48;;;;;;;28.55;19.60;;;;;;;8.45;75.59;102488.06;1669091;85;20952;-73
2021/10/08 01:30:14;;;;;;;31.97;18.17;;;;;;;8.42;75.58;102488.00;1679735;85;20885;-73
2021/10/08 01:32:41;;;;;;;30.48;19.05;;;;;;;8.39;75.59;102487.92;1663044;85;20942;-73
2021/10/08 01:35:07;;;;;;;26.73;18.30;;;;;;;8.36;75.57;102496.88;1654963;85;20922;-73
2021/10/08 01:37:36;;;;;;;29.82;17.87;;;;;;;8.32;75.55;102490.32;1679387;85;20951;-73
2021/10/08 01:40:03;;;;;;;28.32;18.45;;;;;;;8.25;75.57;102486.73;1679522;85;20931;-73
2021/10/08 01:42:30;;;;;;;26.40;17.55;;;;;;;8.23;75.61;102488.40;1652894;85;20923;-73
2021/10/08 01:45:03;;;;;;;24.12;17.25;;;;;;;8.20;75.62;102490.48;1674945;85;20884;-73
2021/10/08 01:47:29;;;;;;;31.25;18.32;;;;;;;8.16;75.66;102484.80;1663712;85;20960;-73
2021/10/08 01:49:55;;;;;;;30.33;18.10;;;;;;;8.12;75.61;102489.84;1635682;86;21980;-73
2021/10/08 01:52:23;;;;;;;27.35;18.32;;;;;;;8.07;75.55;102494.02;1639080;87;20920;-73
2021/10/08 01:54:49;;;;;;;27.43;18.33;;;;;;;7.99;75.55;102492.54;1631677;87;21022;-73
2021/10/08 01:57:16;;;;;;;28.80;18.73;;;;;;;7.93;75.63;102499.70;1679270;85;20915;-73
2021/10/08 01:59:43;;;;;;;28.85;17.65;;;;;;;7.89;75.74;102497.00;1679425;85;20958;-73
2021/10/08 02:02:09;;;;;;;27.67;18.02;;;;;;;7.87;75.72;102502.12;1665315;83;20919;-73
2021/10/08 02:04:35;;;;;;;27.42;17.57;;;;;;;7.85;75.73;102499.92;1655670;85;20922;-73
2021/10/08 02:07:01;;;;;;;25.07;17.77;;;;;;;7.82;75.74;102499.84;1660768;85;20989;-73
2021/10/08 02:09:27;;;;;;;28.70;17.75;;;;;;;7.81;75.80;102496.81;1679407;85;20905;-73
2021/10/08 02:11:53;;;;;;;28.00;17.23;;;;;;;7.80;75.81;102493.78;1658622;85;20975;-73
2021/10/08 02:14:19;;;;;;;23.27;16.48;;;;;;;7.78;75.74;102496.77;1636021;85;21470;-73
2021/10/08 02:16:45;;;;;;;28.32;18.42;;;;;;;7.73;75.70;102494.48;1633010;86;20909;-73
2021/10/08 02:19:11;;;;;;;25.92;17.67;;;;;;;7.68;75.66;102497.36;1643830;86;20951;-73
2021/10/08 02:21:39;;;;;;;34.45;18.73;;;;;;;7.60;75.65;102498.86;1656752;85;21131;-73
2021/10/08 02:24:05;;;;;;;32.05;18.17;;;;;;;7.47;75.64;102483.91;1659453;86;20918;-73
2021/10/08 02:26:31;;;;;;;27.93;17.92;;;;;;;7.46;75.72;102497.20;1658190;85;21322;-73
2021/10/08 02:28:57;;;;;;;28.33;17.87;;;;;;;7.42;75.79;102495.38;1652357;86;21050;-73
2021/10/08 02:31:23;;;;;;;25.10;17.92;;;;;;;7.39;75.81;102500.85;1654130;85;21331;-73
2021/10/08 02:33:50;;;;;;;24.63;17.32;;;;;;;7.37;75.82;102505.95;1649077;86;21571;-73
2021/10/08 02:36:20;;;;;;;25.85;16.32;;;;;;;7.34;75.80;102503.72;1657449;85;21349;-73
2021/10/08 02:38:46;;;;;;;26.43;15.73;;;;;;;7.29;75.76;102512.59;1657837;85;21004;-73
2021/10/08 02:41:12;;;;;;;25.47;17.87;;;;;;;7.22;75.73;102510.30;1646459;85;20994;-73
2021/10/08 02:43:38;;;;;;;27.60;17.17;;;;;;;7.17;75.73;102519.58;1634340;86;21036;-73
2021/10/08 02:46:06;;;;;;;32.38;18.87;;;;;;;7.10;75.75;102520.23;1633812;85;21104;-73
2021/10/08 02:48:34;;;;;;;29.65;17.82;;;;;;;7.04;75.86;102522.63;1657495;85;21110;-73
2021/10/08 02:51:02;;;;;;;32.75;18.98;;;;;;;7.01;75.90;102522.95;1658999;85;21010;-73
2021/10/08 02:53:28;;;;;;;25.62;18.42;;;;;;;6.97;75.87;102521.98;1646407;85;21025;-73
2021/10/08 02:55:58;;;;;;;26.48;16.52;;;;;;;6.92;75.87;102520.98;1645825;86;21066;-73
2021/10/08 02:58:24;;;;;;;28.70;17.80;;;;;;;6.86;75.86;102525.94;1655196;86;21535;-73
2021/10/08 03:00:50;;;;;;;33.90;18.03;;;;;;;6.82;75.95;102533.98;1657998;85;21601;-73
2021/10/08 03:03:16;;;;;;;;;;;;;;;6.80;76.01;102535.63;1660055;85;21048;-73
2021/10/08 03:05:42;;;;;;;28.47;16.57;;;;;;;6.79;76.20;102535.17;1639097;85;20169;-73
2021/10/08 03:08:09;;;;;;;23.40;16.77;;;;;;;6.77;76.08;102534.25;1652932;86;21092;-73
2021/10/08 03:10:35;;;;;;;22.90;15.78;;;;;;;6.77;76.02;102535.95;1653626;85;21099;-73
2021/10/08 03:13:02;;;;;;;24.75;15.23;;;;;;;6.75;76.03;102537.22;1631115;86;20963;-73
2021/10/08 03:15:29;;;;;;;23.30;15.80;;;;;;;6.73;75.99;102533.73;1587645;89;20975;-73
2021/10/08 03:17:55;;;;;;;21.37;14.18;;;;;;;6.70;75.98;102535.33;1616892;87;20994;-73
2021/10/08 03:20:21;;;;;;;29.70;15.58;;;;;;;6.67;75.97;102534.83;1605543;88;20982;-73
2021/10/08 03:22:48;;;;;;;24.33;14.93;;;;;;;6.61;75.93;102534.64;1624829;87;20900;-73
2021/10/08 03:25:14;;;;;;;21.02;14.50;;;;;;;6.58;76.03;102540.55;1609770;86;20983;-73
2021/10/08 03:27:44;;;;;;;24.85;15.08;;;;;;;6.55;76.01;102540.45;1596588;88;20975;-73
2021/10/08 03:30:15;;;;;;;26.05;17.25;;;;;;;6.50;75.99;102540.72;1597158;88;20954;-73
2021/10/08 03:32:41;;;;;;;28.27;16.80;;;;;;;6.43;75.92;102558.05;1601813;88;21450;-73
2021/10/08 03:35:09;;;;;;;26.37;17.82;;;;;;;6.40;76.18;102554.10;1622138;88;21009;-73
2021/10/08 03:40:10;;;;;;;26.05;17.20;;;;;;;6.43;76.17;102554.20;1622196;88;20911;-73
2021/10/08 03:42:36;;;;;;;27.93;16.67;;;;;;;6.44;76.28;102553.38;1621632;88;21400;-73
2021/10/08 03:45:10;;;;;;;22.43;15.13;;;;;;;6.45;76.28;102552.97;1622400;87;20903;-73
2021/10/08 03:47:50;;;;;;;23.85;17.15;;;;;;;6.43;76.10;102561.04;1617928;88;20982;-73
2021/10/08 03:50:04;;;;;;;24.87;16.40;;;;;;;6.37;76.05;102554.00;1613436;88;20958;-73
2021/10/08 03:52:30;;;;;;;23.32;16.67;;;;;;;6.30;76.04;102558.48;1622184;88;20925;-73
2021/10/08 03:54:56;;;;;;;25.77;16.23;;;;;;;6.24;76.06;102558.28;1618825;87;20947;-73
2021/10/08 03:57:22;;;;;;;39.53;16.47;;;;;;;6.19;76.07;102553.44;1615009;88;20888;-73
2021/10/08 03:59:47;;;;;;;23.93;15.63;;;;;;;6.12;76.12;102555.34;1612158;88;20899;-73
2021/10/08 04:02:13;;;;;;;26.70;15.70;;;;;;;6.11;76.23;102556.16;1616102;87;21894;-73
2021/10/08 04:04:40;;;;;;;33.53;17.77;;;;;;;6.09;76.28;102553.95;1619281;88;21032;-73
2021/10/08 04:07:06;;;;;;;27.57;17.07;;;;;;;6.09;76.30;102553.95;1617425;88;20935;-73
2021/10/08 04:09:32;;;;;;;26.63;16.63;;;;;;;6.08;76.27;102555.64;1618299;88;21935;-73
2021/10/08 04:12:02;;;;;;;27.67;16.45;;;;;;;6.03;76.20;102559.75;1634587;86;21081;-73
2021/10/08 04:14:30;;;;;;;21.60;14.20;;;;;;;5.98;76.22;102563.45;1620797;87;21454;-73
2021/10/08 04:16:56;;;;;;;29.60;15.65;;;;;;;5.93;76.25;102554.71;1620188;87;21546;-73
2021/10/08 04:19:23;;;;;;;32.30;15.38;;;;;;;5.89;76.19;102560.97;1677281;85;25647;-73
2021/10/08 04:21:49;;;;;;;26.03;15.57;;;;;;;5.85;76.25;102561.66;1676719;85;21069;-73
2021/10/08 04:24:16;;;;;;;27.57;15.50;;;;;;;5.83;76.32;102564.58;1668930;85;21065;-73
2021/10/08 04:26:41;;;;;;;;;;;;;;;5.84;76.41;102562.48;1644125;87;21439;-72
2021/10/08 04:29:08;;;;;;;25.35;14.83;;;;;;;5.84;76.52;102562.48;1639783;86;20138;-72
2021/10/08 04:31:35;;;;;;;26.07;16.12;;;;;;;5.78;76.22;102562.27;1645225;87;21418;-72
2021/10/08 04:34:01;;;;;;;30.80;17.47;;;;;;;5.70;76.23;102565.87;1638883;86;21384;-72
2021/10/08 04:36:27;;;;;;;26.40;15.37;;;;;;;5.67;76.45;102573.47;1611094;88;20967;-72
2021/10/08 04:38:53;;;;;;;30.60;16.50;;;;;;;5.70;76.50;102572.70;1608643;88;20915;-72
2021/10/08 04:41:19;;;;;;;27.47;15.43;;;;;;;5.72;76.52;102573.63;1620301;87;21016;-72
2021/10/08 04:43:45;;;;;;;20.83;12.63;;;;;;;5.70;76.45;102573.58;1634106;87;21104;-72
2021/10/08 04:46:11;;;;;;;29.45;14.68;;;;;;;5.69;76.40;102577.38;1646637;86;20989;-72
2021/10/08 04:48:38;;;;;;;27.05;13.43;;;;;;;5.65;76.37;102582.39;1648752;85;22171;-72
2021/10/08 04:51:04;;;;;;;24.20;14.03;;;;;;;5.62;76.31;102577.56;1646722;86;20922;-73
2021/10/08 04:53:30;;;;;;;21.52;14.33;;;;;;;5.57;76.28;102577.80;1643725;86;21060;-72
2021/10/08 04:55:57;;;;;;;25.47;13.73;;;;;;;5.52;76.27;102576.77;1636710;86;22413;-72
2021/10/08 04:58:23;;;;;;;22.85;13.38;;;;;;;5.45;76.30;102576.95;1643856;87;21074;-72
2021/10/08 05:00:49;;;;;;;24.10;14.33;;;;;;;5.42;76.31;102579.81;1641316;86;21628;-72
2021/10/08 05:03:19;;;;;;;26.87;16.95;;;;;;;5.39;76.38;102576.73;1610879;87;21349;-72
2021/10/08 05:05:52;;;;;;;26.97;14.60;;;;;;;5.38;76.42;102575.39;1655688;85;21600;-72
2021/10/08 05:08:20;;;;;;;25.80;15.10;;;;;;;5.32;76.35;102582.45;1687159;84;21697;-72
2021/10/08 05:10:47;;;;;;;30.40;16.67;;;;;;;5.25;76.34;102586.88;1679020;83;21406;-72
2021/10/08 05:13:14;;;;;;;30.15;16.73;;;;;;;5.22;76.51;102595.75;1664250;85;21478;-72
2021/10/08 05:15:40;;;;;;;29.30;15.58;;;;;;;5.24;76.58;102592.42;1661251;84;21726;-72
2021/10/08 05:18:06;;;;;;;24.02;15.55;;;;;;;5.27;76.61;102587.41;1669692;83;21391;-72
2021/10/08 05:20:32;;;;;;;21.33;13.75;;;;;;;5.28;76.56;102590.84;1681552;84;21369;-72
2021/10/08 05:22:58;;;;;;;23.52;14.68;;;;;;;5.28;76.53;102598.13;1678057;84;21383;-72
2021/10/08 05:25:26;;;;;;;22.73;13.65;;;;;;;5.29;76.56;102596.44;1671545;84;20897;-72
2021/10/08 05:27:52;;;;;;;23.98;13.38;;;;;;;5.28;76.52;102593.41;1672156;83;21807;-72
2021/10/08 05:30:18;;;;;;;16.30;11.15;;;;;;;5.25;76.44;102589.45;1670547;84;21446;-72
2021/10/08 05:32:44;;;;;;;16.70;11.03;;;;;;;5.24;76.45;102588.98;1668513;84;21464;-72
2021/10/08 05:35:12;;;;;;;14.30;11.23;;;;;;;5.20;76.52;102585.43;1672525;84;20938;-72
2021/10/08 05:37:39;;;;;;;21.57;11.50;;;;;;;5.19;76.53;102592.69;1668668;84;21950;-72
2021/10/08 05:40:07;;;;;;;17.95;11.70;;;;;;;5.20;76.58;102599.97;1673213;84;21362;-72
2021/10/08 05:42:33;;;;;;;29.57;13.55;;;;;;;5.24;76.61;102604.38;1642810;85;21583;-72
2021/10/08 05:45:00;;;;;;;24.02;14.00;;;;;;;5.29;76.71;102608.86;1644028;85;21078;-72
2021/10/08 05:47:30;;;;;;;21.55;13.68;;;;;;;5.39;76.70;102616.49;1637739;85;21671;-72
2021/10/08 05:49:56;;;;;;;29.87;17.20;;;;;;;5.49;76.72;102624.13;1606436;87;21493;-72
2021/10/08 05:52:22;;;;;;;26.23;16.05;;;;;;;5.56;76.73;102626.97;1610704;87;21078;-72
2021/10/08 05:54:48;;;;;;;33.37;15.93;;;;;;;5.69;76.91;102629.58;1609613;87;21126;-72
2021/10/08 05:57:14;;;;;;;26.50;14.53;;;;;;;5.84;77.03;102636.52;1671344;84;22346;-72
2021/10/08 05:59:44;;;;;;;25.77;14.40;;;;;;;6.01;77.07;102639.72;1673346;84;21504;-72
2021/10/08 06:02:11;;;;;;;20.72;14.20;;;;;;;6.16;77.05;102642.82;1632380;86;21058;-72
2021/10/08 06:04:38;;;;;;;22.52;14.50;;;;;;;6.31;77.07;102642.44;1640366;87;22130;-72
2021/10/08 06:07:07;;;;;;;19.92;13.72;;;;;;;6.48;77.04;102649.44;1633968;87;22084;-72
2021/10/08 06:09:34;;;;;;;26.50;14.20;;;;;;;6.64;77.00;102658.98;1646689;86;21525;-72
2021/10/08 06:12:03;;;;;;;29.05;14.70;;;;;;;6.81;77.02;102657.34;1643911;86;20969;-72
2021/10/08 06:14:30;;;;;;;24.52;13.85;;;;;;;7.02;77.16;102661.02;1630760;85;21481;-72
2021/10/08 06:16:55;;;;;;;30.07;14.90;;;;;;;7.28;77.27;102665.23;1630117;86;21460;-73
2021/10/08 06:19:21;;;;;;;20.30;14.20;;;;;;;7.52;77.14;102671.13;1678456;84;20978;-72
2021/10/08 06:21:47;;;;;;;23.60;14.97;;;;;;;7.72;77.02;102675.98;1682063;84;21001;-73
2021/10/08 06:24:14;;;;;;;26.20;15.23;;;;;;;7.87;76.99;102672.52;1660904;84;21370;-73
2021/10/08 06:26:39;;;;;;;31.30;14.70;;;;;;;8.02;77.05;102684.55;1667395;84;20911;-72
2021/10/08 06:29:05;;;;;;;25.07;14.47;;;;;;;8.19;77.01;102688.45;1668514;85;21434;-72
2021/10/08 06:31:32;;;;;;;26.17;14.23;;;;;;;8.33;76.98;102682.80;1678416;85;20954;-72
2021/10/08 06:33:58;;;;;;;28.20;14.33;;;;;;;8.49;77.02;102688.40;1647626;87;21534;-73
2021/10/08 06:36:24;;;;;;;24.43;14.47;;;;;;;8.66;76.92;102694.41;1641139;86;21498;-73
2021/10/08 06:38:50;;;;;;;17.80;12.27;;;;;;;8.79;76.98;102694.75;1638828;86;21644;-73
2021/10/08 06:41:16;;;;;;;29.43;14.27;;;;;;;8.94;77.03;102706.70;1649023;85;28585;-73
2021/10/08 06:43:45;;;;;;;23.18;14.10;;;;;;;9.08;76.87;102708.74;1647673;86;21719;-73
2021/10/08 06:46:11;;;;;;;26.50;14.33;;;;;;;9.26;77.06;102705.30;1635028;87;20996;-73
2021/10/08 06:48:37;;;;;;;28.40;13.47;;;;;;;9.47;77.01;102707.47;1604941;88;20940;-73
2021/10/08 06:51:05;;;;;;;22.87;13.65;;;;;;;9.68;76.99;102710.94;1664497;85;20946;-72
2021/10/08 06:53:31;;;;;;;19.05;13.28;;;;;;;9.84;76.96;102711.30;1678314;85;21552;-72
2021/10/08 06:55:58;;;;;;;32.90;17.05;;;;;;;10.06;77.04;102719.03;1666743;85;20965;-73
2021/10/08 06:58:24;;;;;;;28.57;14.83;;;;;;;10.27;76.81;102716.90;1678295;85;26412;-73
2021/10/08 07:00:54;;;;;;;34.53;19.10;;;;;;;10.47;76.87;102722.41;1678090;84;20956;-73
2021/10/08 07:03:18;;;;;;;31.27;17.52;;;;;;;10.61;76.67;102722.66;1669255;85;20945;-73
2021/10/08 07:05:44;;;;;;;36.63;18.03;;;;;;;10.61;76.58;102727.41;1663126;84;20957;-73
2021/10/08 07:08:10;;;;;;;42.77;19.63;;;;;;;10.63;76.65;102718.38;1662702;84;20927;-73
2021/10/08 07:10:38;;;;;;;36.27;17.50;;;;;;;10.72;76.62;102729.31;1677967;84;21601;-73
2021/10/08 07:13:04;;;;;;;35.05;17.20;;;;;;;10.83;76.71;102727.36;1671266;85;20930;-73
2021/10/08 07:15:32;;;;;;;39.13;18.00;;;;;;;10.97;76.69;102734.45;1662074;85;20947;-73
2021/10/08 07:17:59;;;;;;;38.25;18.35;;;;;;;11.04;76.69;102736.30;1672547;85;20951;-73
2021/10/08 07:20:28;;;;;;;24.43;14.65;;;;;;;11.17;76.65;102733.92;1678124;85;20861;-73
2021/10/08 07:22:56;;;;;;;34.88;16.07;;;;;;;11.20;76.62;102738.28;1658680;85;21372;-73
2021/10/08 07:25:28;;;;;;;32.63;15.63;;;;;;;11.36;76.74;102733.78;1663388;85;20961;-73
2021/10/08 07:28:02;;;;;;;35.75;16.20;;;;;;;11.50;76.50;102738.70;1671359;85;20911;-73
2021/10/08 07:30:28;;;;;;;27.53;14.33;;;;;;;11.58;76.47;102737.09;1667325;85;20934;-73
2021/10/08 07:32:54;;;;;;;25.00;13.70;;;;;;;11.65;76.40;102742.36;1674935;85;21604;-73
2021/10/08 07:35:20;;;;;;;22.80;12.53;;;;;;;11.67;76.37;102741.54;1663676;84;20970;-73
2021/10/08 07:37:46;;;;;;;31.17;12.73;;;;;;;11.69;76.43;102745.02;1650866;86;20966;-73
2021/10/08 07:40:13;;;;;;;23.40;12.30;;;;;;;11.79;76.29;102736.98;1662933;85;20935;-73
2021/10/08 07:42:39;;;;;;;21.97;10.70;;;;;;;11.81;76.16;102740.03;1650887;85;20878;-73
2021/10/08 07:45:09;;;;;;;26.10;11.68;;;;;;;11.79;76.08;102739.14;1655380;85;20898;-73
2021/10/08 07:47:36;;;;;;;18.95;11.43;;;;;;;11.70;76.14;102744.59;1675812;84;21386;-73
2021/10/08 07:50:05;;;;;;;24.35;12.03;;;;;;;11.74;76.08;102744.66;1671567;84;20869;-73
2021/10/08 07:52:31;;;;;;;23.60;11.30;;;;;;;11.81;76.13;102742.63;1674472;84;20911;-73
2021/10/08 07:54:57;;;;;;;19.10;12.33;;;;;;;11.87;76.20;102741.41;1663084;85;20899;-73
2021/10/08 07:57:23;;;;;;;18.17;11.77;;;;;;;11.94;76.10;102744.95;1636481;85;20965;-73
2021/10/08 07:59:49;;;;;;;19.57;10.53;;;;;;;12.08;76.08;102742.07;1651966;84;20895;-73
2021/10/08 08:02:15;;;;;;;19.62;11.78;;;;;;;12.22;76.00;102744.83;1656999;84;20907;-73
2021/10/08 08:04:41;;;;;;;20.30;11.77;;;;;;;12.27;75.99;102752.23;1678152;85;21040;-73
2021/10/08 08:07:07;;;;;;;18.12;10.60;;;;;;;12.23;76.04;102757.81;1680962;84;20899;-73
2021/10/08 08:09:34;;;;;;;22.25;11.38;;;;;;;12.29;76.08;102760.03;1678380;85;20907;-73
2021/10/08 08:12:00;;;;;;;22.00;11.37;;;;;;;12.29;75.90;102760.91;1678085;85;20878;-73
2021/10/08 08:14:26;;;;;;;21.60;12.00;;;;;;;12.34;75.86;102760.95;1661349;85;20882;-73
2021/10/08 08:16:52;;;;;;;23.77;11.23;;;;;;;12.38;75.59;102762.73;1659451;84;20871;-73
2021/10/08 08:19:18;;;;;;;19.83;11.57;;;;;;;12.43;75.56;102760.63;1669433;85;20943;-73
2021/10/08 08:21:44;;;;;;;24.23;12.27;;;;;;;12.42;75.18;102760.61;1651285;86;20962;-73
2021/10/08 08:24:11;;;;;;;23.20;11.10;;;;;;;12.39;75.14;102763.17;1661754;85;20915;-73
2021/10/08 08:26:38;;;;;;;23.57;12.37;;;;;;;12.36;75.14;102763.14;1661837;85;20930;-73
2021/10/08 08:29:05;;;;;;;17.17;10.13;;;;;;;12.33;75.20;102763.98;1651333;85;20994;-73
2021/10/08 08:31:32;;;;;;;20.12;11.48;;;;;;;12.38;75.08;102763.60;1668844;84;20914;-73
2021/10/08 08:33:58;;;;;;;22.27;11.40;;;;;;;12.40;74.85;102765.79;1677597;85;20978;-73
2021/10/08 08:36:24;;;;;;;20.03;10.73;;;;;;;12.38;74.85;102767.49;1666628;85;20919;-73
2021/10/08 08:39:02;;;;;;;17.10;10.93;;;;;;;12.36;74.72;102769.20;1653433;85;20907;-73
2021/10/08 08:41:25;;;;;;;23.90;10.23;;;;;;;12.31;74.59;102760.92;1653380;84;20956;-73
2021/10/08 08:43:55;;;;;;;20.82;11.80;;;;;;;12.24;74.46;102763.45;1663705;85;20954;-73
2021/10/08 08:46:21;;;;;;;24.13;11.60;;;;;;;12.22;74.45;102770.34;1658022;85;21033;-73
2021/10/08 08:48:47;;;;;;;27.40;11.80;;;;;;;12.17;74.27;102765.52;1673476;84;21049;-73
2021/10/08 08:51:13;;;;;;;22.20;11.28;;;;;;;12.17;74.19;102763.35;1672001;85;21072;-72
2021/10/08 08:53:39;;;;;;;18.03;10.27;;;;;;;12.10;74.06;102767.59;1678373;84;21085;-73
2021/10/08 08:56:05;;;;;;;21.20;10.47;;;;;;;12.07;73.98;102768.85;1674254;83;21113;-73
2021/10/08 08:58:31;;;;;;;21.37;10.93;;;;;;;12.07;73.93;102762.80;1674477;84;21117;-73
2021/10/08 09:01:00;;;;;;;20.53;10.13;;;;;;;12.05;73.87;102758.89;1667790;85;21089;-73
2021/10/08 09:03:27;;;;;;;18.10;10.23;;;;;;;12.05;73.74;102762.78;1677799;84;21223;-73
2021/10/08 09:05:53;;;;;;;23.95;11.00;;;;;;;12.03;73.61;102761.02;1678618;84;20960;-72
2021/10/08 09:08:34;;;;;;;17.75;10.40;;;;;;;12.06;73.56;102762.35;1668254;84;21740;-72
2021/10/08 09:11:05;;;;;;;26.33;10.85;;;;;;;12.05;73.46;102764.50;1674615;84;20931;-72
2021/10/08 09:13:32;;;;;;;23.38;9.98;;;;;;;12.08;73.37;102760.22;1618091;86;20993;-72
2021/10/08 09:15:59;;;;;;;19.43;8.93;;;;;;;12.09;73.21;102760.67;1631652;86;20932;-72
2021/10/08 09:18:30;;;;;;;20.12;8.73;;;;;;;12.09;73.09;102759.38;1632640;86;20936;-72
2021/10/08 09:21:07;;;;;;;23.40;10.60;;;;;;;12.10;72.94;102755.05;1595276;89;20910;-72
2021/10/08 09:23:46;;;;;;;17.90;8.93;;;;;;;12.12;72.84;102764.59;1638062;86;20971;-73
2021/10/08 09:26:21;;;;;;;22.67;8.85;;;;;;;12.16;72.81;102758.59;1627385;87;20968;-73
2021/10/08 09:29:01;;;;;;;22.60;8.95;;;;;;;12.22;72.76;102761.69;1630128;86;21003;-73
2021/10/08 09:31:43;;;;;;;18.17;8.38;;;;;;;12.26;72.53;102761.73;1628465;87;20924;-73
2021/10/08 09:34:21;;;;;;;23.80;8.65;;;;;;;12.32;72.55;102754.45;1632361;86;21448;-73
2021/10/08 09:37:01;;;;;;;21.75;8.10;;;;;;;12.35;72.29;102754.48;1628882;87;20903;-73
2021/10/08 09:39:30;;;;;;;24.20;8.43;;;;;;;12.37;72.17;102750.19;1635581;86;20978;-73
2021/10/08 09:42:02;;;;;;;18.87;7.97;;;;;;;12.39;72.03;102751.50;1631265;86;21474;-73
2021/10/08 09:44:30;;;;;;;17.07;8.70;;;;;;;12.43;71.91;102750.25;1628823;86;21570;-73
2021/10/08 09:47:18;;;;;;;16.32;8.90;;;;;;;12.48;71.93;102753.73;1627077;87;21632;-73
2021/10/08 09:49:50;;;;;;;23.98;8.40;;;;;;;12.55;71.86;102753.38;1625501;87;21633;-73
2021/10/08 09:52:27;;;;;;;18.02;8.48;;;;;;;12.60;71.75;102757.75;1633292;87;20972;-72
2021/10/08 09:55:06;;;;;;;16.02;8.65;;;;;;;12.67;71.67;102753.49;1629865;87;21142;-73
2021/10/08 09:57:55;;;;;;;14.75;8.48;;;;;;;12.72;71.60;102753.11;1632412;87;21093;-72
2021/10/08 10:00:46;;;;;;;17.10;8.25;;;;;;;12.80;71.48;102754.05;1633122;86;21369;-73
2021/10/08 10:03:20;;;;;;;15.45;9.00;;;;;;;12.85;71.34;102752.37;1627123;87;20942;-73
2021/10/08 10:05:46;;;;;;;13.13;8.53;;;;;;;12.95;71.07;102756.34;1631167;86;20994;-73
2021/10/08 10:08:14;;;;;;;14.43;9.53;;;;;;;12.97;71.14;102745.11;1633211;87;25203;-72
2021/10/08 10:10:44;;;;;;;14.93;8.25;;;;;;;13.01;71.08;102748.57;1634331;87;21341;-73
2021/10/08 10:13:12;;;;;;;22.65;8.50;;;;;;;13.08;70.94;102747.34;1637002;85;20921;-72
2021/10/08 10:15:46;;;;;;;16.85;7.25;;;;;;;13.11;70.72;102745.19;1664473;84;20946;-73
2021/10/08 10:18:16;;;;;;;14.53;6.42;;;;;;;13.11;70.52;102742.16;1660923;86;20929;-73
2021/10/08 10:20:51;;;;;;;12.68;6.40;;;;;;;13.17;70.52;102739.65;1661495;84;20933;-73
2021/10/08 10:23:21;;;;;;;12.33;5.83;;;;;;;13.24;70.31;102747.06;1653864;86;20950;-73
2021/10/08 10:25:49;;;;;;;11.20;6.15;;;;;;;13.27;70.15;102739.28;1654919;84;21332;-73
2021/10/08 10:28:17;;;;;;;11.70;5.92;;;;;;;13.31;69.90;102724.59;1654083;85;20930;-73
2021/10/08 10:30:46;;;;;;;12.37;6.42;;;;;;;13.36;69.93;102741.95;1661071;86;20990;-73
2021/10/08 10:33:13;;;;;;;13.20;5.92;;;;;;;13.39;69.81;102730.70;1654936;86;20950;-72
2021/10/08 10:35:52;;;;;;;19.32;6.50;;;;;;;13.44;69.69;102733.77;1656628;84;20871;-73
2021/10/08 10:38:39;;;;;;;11.85;5.10;;;;;;;13.48;69.48;102734.66;1665120;84;28066;-73
2021/10/08 10:41:13;;;;;;;15.50;5.35;;;;;;;13.53;69.23;102738.13;1650720;84;21080;-73
2021/10/08 10:43:47;;;;;;;7.25;4.90;;;;;;;13.52;67.34;102733.36;1661856;85;21076;-73
2021/10/08 10:46:41;;;;;;;;;;;;;;;13.48;68.45;102738.13;1662627;84;21147;-73
2021/10/08 10:52:08;;;;;;;11.20;5.40;;;;;;;13.49;68.38;102729.90;1663232;84;21139;-73
2021/10/08 10:54:52;;;;;;;15.50;5.60;;;;;;;13.56;68.43;102732.94;1658838;86;21385;-73
2021/10/08 10:57:31;;;;;;;;;;;;;;;13.62;68.23;102728.20;1663507;84;21078;-73
2021/10/08 11:00:32;;;;;;;17.45;5.78;;;;;;;13.66;67.09;102724.33;1655985;84;20185;-73
2021/10/08 11:03:18;;;;;;;13.22;4.85;;;;;;;13.66;67.82;102728.66;1656112;84;20976;-73
2021/10/08 11:06:13;;;;;;;14.10;5.87;;;;;;;13.67;67.61;102726.07;1671261;84;20934;-73
2021/10/08 11:09:15;;;;;;;12.60;5.40;;;;;;;13.69;67.53;102725.64;1654672;84;21371;-73
2021/10/08 11:11:39;;;;;;;13.68;5.58;;;;;;;13.68;67.08;102724.34;1648075;86;21389;-73
2021/10/08 11:14:19;;;;;;;15.65;5.85;;;;;;;13.66;67.10;102715.23;1653599;84;21003;-73
2021/10/08 11:16:45;;;;;;;18.65;5.33;;;;;;;13.66;67.06;102713.93;1648773;85;21360;-73
2021/10/08 11:19:39;;;;;;;16.15;4.80;;;;;;;13.69;67.01;102720.45;1641201;86;20979;-73
2021/10/08 11:22:06;;;;;;;15.75;4.60;;;;;;;13.74;66.80;102722.64;1624614;87;20947;-73
2021/10/08 11:24:32;;;;;;;16.17;5.35;;;;;;;13.75;66.40;102716.58;1614793;87;21498;-73
2021/10/08 11:27:01;;;;;;;9.88;5.22;;;;;;;13.75;66.48;102717.01;1639986;86;20900;-72
2021/10/08 11:29:31;;;;;;;13.08;5.35;;;;;;;13.76;66.31;102709.64;1639485;86;20907;-73